sensor_id;sensor_type;location;lat;lon;timestamp;temperature;humidity
72919;SHT30;68407;55.694;26.994;2023-05-17T00:01:56;11.4;84
72919;SHT30;68407;55.694;26.994;2023-05-17T00:06:58;11.3;83.8
72919;SHT30;68407;55.694;26.994;2023-05-17T00:11:54;11.3;83.8
72919;SHT30;68407;55.694;26.994;2023-05-17T00:16:40;11.3;83.8
72919;SHT30;68407;55.694;26.994;2023-05-17T00:22:14;11.2;82.9
72919;SHT30;68407;55.694;26.994;2023-05-17T00:26:58;11;83.5
72919;SHT30;68407;55.694;26.994;2023-05-17T00:31:44;10.9;83.7
72919;SHT30;68407;55.694;26.994;2023-05-17T00:36:40;10.9;84
72919;SHT30;68407;55.694;26.994;2023-05-17T00:42:16;10.9;84.1
72919;SHT30;68407;55.694;26.994;2023-05-17T00:46:40;10.9;84.8
72919;SHT30;68407;55.694;26.994;2023-05-17T00:52:04;11;84.8
72919;SHT30;68407;55.694;26.994;2023-05-17T00:57:04;11;84.8
72919;SHT30;68407;55.694;26.994;2023-05-17T01:01:40;11;84.8
72919;SHT30;68407;55.694;26.994;2023-05-17T01:07:00;11.1;84.4
72919;SHT30;68407;55.694;26.994;2023-05-17T01:11:53;11;83.7
72919;SHT30;68407;55.694;26.994;2023-05-17T01:16:31;10.8;83.5
72919;SHT30;68407;55.694;26.994;2023-05-17T01:22:09;10.8;84.4
72919;SHT30;68407;55.694;26.994;2023-05-17T01:27:14;10.7;84.2
72919;SHT30;68407;55.694;26.994;2023-05-17T01:31:42;10.7;84.5
72919;SHT30;68407;55.694;26.994;2023-05-17T01:36:58;10.8;84.5
72919;SHT30;68407;55.694;26.994;2023-05-17T01:42:07;10.8;84.7
72919;SHT30;68407;55.694;26.994;2023-05-17T01:46:48;10.7;84.6
72919;SHT30;68407;55.694;26.994;2023-05-17T01:51:28;10.7;84.8
72919;SHT30;68407;55.694;26.994;2023-05-17T01:57:03;10.7;85.3
72919;SHT30;68407;55.694;26.994;2023-05-17T02:02:16;10.8;85.2
72919;SHT30;68407;55.694;26.994;2023-05-17T02:07:16;10.9;84.9
72919;SHT30;68407;55.694;26.994;2023-05-17T02:12:00;11;84.8
72919;SHT30;68407;55.694;26.994;2023-05-17T02:17:14;11.1;84.6
72919;SHT30;68407;55.694;26.994;2023-05-17T02:21:30;11;84
72919;SHT30;68407;55.694;26.994;2023-05-17T02:26:30;10.9;84.1
72919;SHT30;68407;55.694;26.994;2023-05-17T02:31:36;10.9;85.1
72919;SHT30;68407;55.694;26.994;2023-05-17T02:37:16;11.1;85.4
72919;SHT30;68407;55.694;26.994;2023-05-17T02:41:42;11.2;85.2
72919;SHT30;68407;55.694;26.994;2023-05-17T02:47:16;11.4;84.9
72919;SHT30;68407;55.694;26.994;2023-05-17T02:52:16;11.5;84.4
72919;SHT30;68407;55.694;26.994;2023-05-17T02:56:30;11.6;84.1
72919;SHT30;68407;55.694;26.994;2023-05-17T03:01:52;11.7;83.8
72919;SHT30;68407;55.694;26.994;2023-05-17T03:06:44;11.7;83.8
72919;SHT30;68407;55.694;26.994;2023-05-17T03:12:00;11.8;83.4
72919;SHT30;68407;55.694;26.994;2023-05-17T03:17:08;11.9;83.5
72919;SHT30;68407;55.694;26.994;2023-05-17T03:21:54;12.1;83.5
72919;SHT30;68407;55.694;26.994;2023-05-17T03:27:16;12.3;82.9
72919;SHT30;68407;55.694;26.994;2023-05-17T03:32:00;12.4;82.6
72919;SHT30;68407;55.694;26.994;2023-05-17T03:36:31;12.6;82.5
72919;SHT30;68407;55.694;26.994;2023-05-17T03:41:30;12.9;82.3
72919;SHT30;68407;55.694;26.994;2023-05-17T03:47:18;13.2;82.5
72919;SHT30;68407;55.694;26.994;2023-05-17T03:51:50;13.4;82.3
72919;SHT30;68407;55.694;26.994;2023-05-17T03:57:06;13.7;82.1
72919;SHT30;68407;55.694;26.994;2023-05-17T04:01:58;14;81.5
72919;SHT30;68407;55.694;26.994;2023-05-17T04:06:42;14.2;80.9
72919;SHT30;68407;55.694;26.994;2023-05-17T04:11:58;14.6;80
72919;SHT30;68407;55.694;26.994;2023-05-17T04:16:56;15.1;79.5
72919;SHT30;68407;55.694;26.994;2023-05-17T04:21:48;15.6;78.4
72919;SHT30;68407;55.694;26.994;2023-05-17T04:27:08;16;77.2
72919;SHT30;68407;55.694;26.994;2023-05-17T04:32:18;16.2;76
72919;SHT30;68407;55.694;26.994;2023-05-17T04:36:30;16.6;75.6
72919;SHT30;68407;55.694;26.994;2023-05-17T04:42:02;16.9;75
72919;SHT30;68407;55.694;26.994;2023-05-17T04:47:08;17;74.3
72919;SHT30;68407;55.694;26.994;2023-05-17T04:52:06;17.1;73.9
72919;SHT30;68407;55.694;26.994;2023-05-17T04:56:40;17;73.7
72919;SHT30;68407;55.694;26.994;2023-05-17T05:02:04;17.2;73.2
72919;SHT30;68407;55.694;26.994;2023-05-17T05:07:16;17.6;72.8
72919;SHT30;68407;55.694;26.994;2023-05-17T05:12:16;18.2;72.1
72919;SHT30;68407;55.694;26.994;2023-05-17T05:16:36;18.6;70
72919;SHT30;68407;55.694;26.994;2023-05-17T05:22:16;18.9;69.7
72919;SHT30;68407;55.694;26.994;2023-05-17T05:27:08;19.1;69
72919;SHT30;68407;55.694;26.994;2023-05-17T05:31:30;19.1;68.6
72919;SHT30;68407;55.694;26.994;2023-05-17T05:36:46;18.6;69.3
72919;SHT30;68407;55.694;26.994;2023-05-17T05:42:16;18.5;69.2
72919;SHT30;68407;55.694;26.994;2023-05-17T05:46:30;18.4;69.4
72919;SHT30;68407;55.694;26.994;2023-05-17T05:52:04;18.2;69.5
72919;SHT30;68407;55.694;26.994;2023-05-17T05:57:16;18.2;69.7
72919;SHT30;68407;55.694;26.994;2023-05-17T06:01:30;18.3;69.7
72919;SHT30;68407;55.694;26.994;2023-05-17T06:06:50;18.3;69.6
72919;SHT30;68407;55.694;26.994;2023-05-17T06:11:30;18.3;69.5
72919;SHT30;68407;55.694;26.994;2023-05-17T06:16:40;18.4;69.3
72919;SHT30;68407;55.694;26.994;2023-05-17T06:22:08;18.4;69
72919;SHT30;68407;55.694;26.994;2023-05-17T06:26:30;18.4;69
72919;SHT30;68407;55.694;26.994;2023-05-17T06:31:30;18.5;69.1
72919;SHT30;68407;55.694;26.994;2023-05-17T06:37:00;18.6;68.3
72919;SHT30;68407;55.694;26.994;2023-05-17T06:42:16;18.6;67.9
72919;SHT30;68407;55.694;26.994;2023-05-17T06:46:30;18.6;67
72919;SHT30;68407;55.694;26.994;2023-05-17T06:51:48;18.6;67.6
72919;SHT30;68407;55.694;26.994;2023-05-17T06:56:30;18.8;67.8
72919;SHT30;68407;55.694;26.994;2023-05-17T07:02:02;19;67.4
72919;SHT30;68407;55.694;26.994;2023-05-17T07:06:36;19.2;66
72919;SHT30;68407;55.694;26.994;2023-05-17T07:11:28;19.3;65.3
72919;SHT30;68407;55.694;26.994;2023-05-17T07:16:58;19.3;65.3
72919;SHT30;68407;55.694;26.994;2023-05-17T07:21:54;19.4;65.4
72919;SHT30;68407;55.694;26.994;2023-05-17T07:26:28;19.4;65.9
72919;SHT30;68407;55.694;26.994;2023-05-17T07:32:08;19.5;65.8
72919;SHT30;68407;55.694;26.994;2023-05-17T07:37:14;19.5;66.4
72919;SHT30;68407;55.694;26.994;2023-05-17T07:41:30;19.6;65.8
72919;SHT30;68407;55.694;26.994;2023-05-17T07:47:00;19.8;65.1
72919;SHT30;68407;55.694;26.994;2023-05-17T07:52:08;19.8;64.5
72919;SHT30;68407;55.694;26.994;2023-05-17T07:57:04;19.7;65
72919;SHT30;68407;55.694;26.994;2023-05-17T08:01:42;19.7;64.6
72919;SHT30;68407;55.694;26.994;2023-05-17T08:07:04;19.4;65.7
72919;SHT30;68407;55.694;26.994;2023-05-17T08:12:16;19.3;66.7
72919;SHT30;68407;55.694;26.994;2023-05-17T08:17:16;19.5;65.6
72919;SHT30;68407;55.694;26.994;2023-05-17T08:21:30;19.7;64.8
72919;SHT30;68407;55.694;26.994;2023-05-17T08:27:16;20.1;64
72919;SHT30;68407;55.694;26.994;2023-05-17T08:32:08;20.4;63.7
72919;SHT30;68407;55.694;26.994;2023-05-17T08:36:42;20.6;63.7
72919;SHT30;68407;55.694;26.994;2023-05-17T08:41:42;20.7;62.4
72919;SHT30;68407;55.694;26.994;2023-05-17T08:47:16;20.9;62.6
72919;SHT30;68407;55.694;26.994;2023-05-17T08:51:42;21;61.8
72919;SHT30;68407;55.694;26.994;2023-05-17T08:57:16;20.8;62.3
72919;SHT30;68407;55.694;26.994;2023-05-17T09:02:16;20.7;62.3
72919;SHT30;68407;55.694;26.994;2023-05-17T09:06:42;20.3;62.4
72919;SHT30;68407;55.694;26.994;2023-05-17T09:11:52;19.9;63.8
72919;SHT30;68407;55.694;26.994;2023-05-17T09:16:56;19.3;64
72919;SHT30;68407;55.694;26.994;2023-05-17T09:21:44;18.7;65.1
72919;SHT30;68407;55.694;26.994;2023-05-17T09:27:10;18.6;65.7
72919;SHT30;68407;55.694;26.994;2023-05-17T09:31:44;18.6;65.8
72919;SHT30;68407;55.694;26.994;2023-05-17T09:36:48;19;64.3
72919;SHT30;68407;55.694;26.994;2023-05-17T09:42:14;19.2;64.2
72919;SHT30;68407;55.694;26.994;2023-05-17T09:47:24;19.2;63
72919;SHT30;68407;55.694;26.994;2023-05-17T09:51:43;19.1;63.5
72919;SHT30;68407;55.694;26.994;2023-05-17T09:56:30;19.1;63.8
72919;SHT30;68407;55.694;26.994;2023-05-17T10:01:52;18.9;63.6
72919;SHT30;68407;55.694;26.994;2023-05-17T10:07:14;19;63.1
72919;SHT30;68407;55.694;26.994;2023-05-17T10:11:41;18.8;64.1
72919;SHT30;68407;55.694;26.994;2023-05-17T10:16:42;18.5;64.1
72919;SHT30;68407;55.694;26.994;2023-05-17T10:22:16;18.5;64.6
72919;SHT30;68407;55.694;26.994;2023-05-17T10:26:42;18.4;64.4
72919;SHT30;68407;55.694;26.994;2023-05-17T10:31:42;18.1;65
72919;SHT30;68407;55.694;26.994;2023-05-17T10:37:10;18;65.7
72919;SHT30;68407;55.694;26.994;2023-05-17T10:42:16;18;66.6
72919;SHT30;68407;55.694;26.994;2023-05-17T10:46:49;18.2;67
72919;SHT30;68407;55.694;26.994;2023-05-17T10:52:17;18;68.1
72919;SHT30;68407;55.694;26.994;2023-05-17T10:57:17;17.9;67.9
72919;SHT30;68407;55.694;26.994;2023-05-17T11:01:53;17.9;68.4
72919;SHT30;68407;55.694;26.994;2023-05-17T11:06:53;17.8;69.8
72919;SHT30;68407;55.694;26.994;2023-05-17T11:12:05;17.8;71
72919;SHT30;68407;55.694;26.994;2023-05-17T11:16:48;17.5;72.6
72919;SHT30;68407;55.694;26.994;2023-05-17T11:22:16;17.3;74.2
72919;SHT30;68407;55.694;26.994;2023-05-17T11:26:32;17.1;75.7
72919;SHT30;68407;55.694;26.994;2023-05-17T11:32:16;17.2;76.6
72919;SHT30;68407;55.694;26.994;2023-05-17T11:37:09;17.2;77.4
72919;SHT30;68407;55.694;26.994;2023-05-17T11:41:46;17.1;77.8
72919;SHT30;68407;55.694;26.994;2023-05-17T11:46:48;17.1;78.2
72919;SHT30;68407;55.694;26.994;2023-05-17T11:52:16;17.1;78.3
72919;SHT30;68407;55.694;26.994;2023-05-17T11:57:02;17;78.6
72919;SHT30;68407;55.694;26.994;2023-05-17T12:02:04;17;75.8
72919;SHT30;68407;55.694;26.994;2023-05-17T12:07:16;16.9;75
72919;SHT30;68407;55.694;26.994;2023-05-17T12:11:52;16.9;76.2
72919;SHT30;68407;55.694;26.994;2023-05-17T12:16:30;16.8;76.8
72919;SHT30;68407;55.694;26.994;2023-05-17T12:22:04;16.9;77.1
72919;SHT30;68407;55.694;26.994;2023-05-17T12:26:43;16.9;77.7
72919;SHT30;68407;55.694;26.994;2023-05-17T12:32:08;16.9;77.7
72919;SHT30;68407;55.694;26.994;2023-05-17T12:36:56;16.7;78.9
72919;SHT30;68407;55.694;26.994;2023-05-17T12:41:49;16.6;79.4
72919;SHT30;68407;55.694;26.994;2023-05-17T12:47:00;16.5;79.4
72919;SHT30;68407;55.694;26.994;2023-05-17T12:52:16;16.6;79.5
72919;SHT30;68407;55.694;26.994;2023-05-17T12:56:30;16.3;80
72919;SHT30;68407;55.694;26.994;2023-05-17T13:01:53;16;80.7
72919;SHT30;68407;55.694;26.994;2023-05-17T13:06:42;16;81.2
72919;SHT30;68407;55.694;26.994;2023-05-17T13:11:32;15.9;81.7
72919;SHT30;68407;55.694;26.994;2023-05-17T13:16:40;15.9;82.4
72919;SHT30;68407;55.694;26.994;2023-05-17T13:21:30;15.9;82.9
72919;SHT30;68407;55.694;26.994;2023-05-17T13:27:16;15.8;83.3
72919;SHT30;68407;55.694;26.994;2023-05-17T13:31:56;15.6;83.4
72919;SHT30;68407;55.694;26.994;2023-05-17T13:36:30;15.4;83.7
72919;SHT30;68407;55.694;26.994;2023-05-17T13:41:48;15.3;84.2
72919;SHT30;68407;55.694;26.994;2023-05-17T13:47:16;15.3;84.7
72919;SHT30;68407;55.694;26.994;2023-05-17T13:51:36;15.2;85
72919;SHT30;68407;55.694;26.994;2023-05-17T13:57:16;15.1;85.5
72919;SHT30;68407;55.694;26.994;2023-05-17T14:02:16;15;86.1
72919;SHT30;68407;55.694;26.994;2023-05-17T14:06:40;15;86.1
72919;SHT30;68407;55.694;26.994;2023-05-17T14:11:52;15.2;86.1
72919;SHT30;68407;55.694;26.994;2023-05-17T14:17:04;15.2;86
72919;SHT30;68407;55.694;26.994;2023-05-17T14:22:00;15.3;85.8
72919;SHT30;68407;55.694;26.994;2023-05-17T14:27:08;15.2;85.8
72919;SHT30;68407;55.694;26.994;2023-05-17T14:31:28;15.2;85.3
72919;SHT30;68407;55.694;26.994;2023-05-17T14:37:14;15.1;85.4
72919;SHT30;68407;55.694;26.994;2023-05-17T14:41:58;15.1;85.5
72919;SHT30;68407;55.694;26.994;2023-05-17T14:46:42;15;85.6
72919;SHT30;68407;55.694;26.994;2023-05-17T14:51:44;14.9;86
72919;SHT30;68407;55.694;26.994;2023-05-17T14:57:14;14.9;85.9
72919;SHT30;68407;55.694;26.994;2023-05-17T15:01:50;14.9;85.9
72919;SHT30;68407;55.694;26.994;2023-05-17T15:06:58;14.9;86
72919;SHT30;68407;55.694;26.994;2023-05-17T15:11:38;14.8;86.2
72919;SHT30;68407;55.694;26.994;2023-05-17T15:16:30;14.9;86.2
72919;SHT30;68407;55.694;26.994;2023-05-17T15:21:58;14.8;86.3
72919;SHT30;68407;55.694;26.994;2023-05-17T15:26:54;14.7;86.5
72919;SHT30;68407;55.694;26.994;2023-05-17T15:31:40;14.7;86.4
72919;SHT30;68407;55.694;26.994;2023-05-17T15:37:08;14.6;86.7
72919;SHT30;68407;55.694;26.994;2023-05-17T15:42:14;14.7;86.8
72919;SHT30;68407;55.694;26.994;2023-05-17T15:46:42;14.7;86.9
72919;SHT30;68407;55.694;26.994;2023-05-17T15:52:01;14.8;86.8
72919;SHT30;68407;55.694;26.994;2023-05-17T15:57:16;14.9;86.4
72919;SHT30;68407;55.694;26.994;2023-05-17T16:01:46;14.9;85.8
72919;SHT30;68407;55.694;26.994;2023-05-17T16:06:52;14.8;85.8
72919;SHT30;68407;55.694;26.994;2023-05-17T16:11:30;14.8;86.1
72919;SHT30;68407;55.694;26.994;2023-05-17T16:17:14;14.8;86.1
72919;SHT30;68407;55.694;26.994;2023-05-17T16:21:30;14.7;86.7
72919;SHT30;68407;55.694;26.994;2023-05-17T16:26:28;14.7;86.8
72919;SHT30;68407;55.694;26.994;2023-05-17T16:32:14;14.8;86.6
72919;SHT30;68407;55.694;26.994;2023-05-17T16:36:44;14.8;86.1
72919;SHT30;68407;55.694;26.994;2023-05-17T16:41:28;14.7;86.3
72919;SHT30;68407;55.694;26.994;2023-05-17T16:46:56;14.6;86.5
72919;SHT30;68407;55.694;26.994;2023-05-17T16:52:14;14.3;87
72919;SHT30;68407;55.694;26.994;2023-05-17T16:56:40;14.1;87.6
72919;SHT30;68407;55.694;26.994;2023-05-17T17:02:16;14.2;87.7
72919;SHT30;68407;55.694;26.994;2023-05-17T17:07:12;14.1;87.6
72919;SHT30;68407;55.694;26.994;2023-05-17T17:11:42;13.8;88.2
72919;SHT30;68407;55.694;26.994;2023-05-17T17:16:58;13.6;88.5
72919;SHT30;68407;55.694;26.994;2023-05-17T17:21:44;13.5;89
72919;SHT30;68407;55.694;26.994;2023-05-17T17:27:00;13.5;89
72919;SHT30;68407;55.694;26.994;2023-05-17T17:32:06;13.6;88.6
72919;SHT30;68407;55.694;26.994;2023-05-17T17:36:56;13.5;88.5
72919;SHT30;68407;55.694;26.994;2023-05-17T17:42:16;13.4;88.6
72919;SHT30;68407;55.694;26.994;2023-05-17T17:47:00;13.3;88.8
72919;SHT30;68407;55.694;26.994;2023-05-17T17:51:40;13.3;88.9
72919;SHT30;68407;55.694;26.994;2023-05-17T17:56:48;13.2;89.1
72919;SHT30;68407;55.694;26.994;2023-05-17T18:02:14;13.2;89.3
72919;SHT30;68407;55.694;26.994;2023-05-17T18:06:50;13.1;89.6
72919;SHT30;68407;55.694;26.994;2023-05-17T18:12:02;13.1;89.7
72919;SHT30;68407;55.694;26.994;2023-05-17T18:17:02;13.1;89.5
72919;SHT30;68407;55.694;26.994;2023-05-17T18:21:40;13;89.6
72919;SHT30;68407;55.694;26.994;2023-05-17T18:26:58;13;89.6
72919;SHT30;68407;55.694;26.994;2023-05-17T18:31:56;13;89.6
72919;SHT30;68407;55.694;26.994;2023-05-17T18:37:16;13.1;89.5
72919;SHT30;68407;55.694;26.994;2023-05-17T18:41:54;13.1;89.4
72919;SHT30;68407;55.694;26.994;2023-05-17T18:47:16;13;89.5
72919;SHT30;68407;55.694;26.994;2023-05-17T18:51:30;13;89.5
72919;SHT30;68407;55.694;26.994;2023-05-17T18:57:00;13;89.3
72919;SHT30;68407;55.694;26.994;2023-05-17T19:02:07;13.1;89.4
72919;SHT30;68407;55.694;26.994;2023-05-17T19:07:04;13.2;88.9
72919;SHT30;68407;55.694;26.994;2023-05-17T19:11:40;13.1;88.7
72919;SHT30;68407;55.694;26.994;2023-05-17T19:17:02;13.1;88.8
72919;SHT30;68407;55.694;26.994;2023-05-17T19:22:14;13.1;88.7
72919;SHT30;68407;55.694;26.994;2023-05-17T19:27:14;13.1;88.4
72919;SHT30;68407;55.694;26.994;2023-05-17T19:31:38;13.1;88.5
72919;SHT30;68407;55.694;26.994;2023-05-17T19:37:14;13.1;88.5
72919;SHT30;68407;55.694;26.994;2023-05-17T19:42:06;13.1;88.5
72919;SHT30;68407;55.694;26.994;2023-05-17T19:46:40;13.2;88.5
72919;SHT30;68407;55.694;26.994;2023-05-17T19:51:30;13.2;88.5
72919;SHT30;68407;55.694;26.994;2023-05-17T19:57:14;13.2;88.7
72919;SHT30;68407;55.694;26.994;2023-05-17T20:01:40;13.3;88.6
72919;SHT30;68407;55.694;26.994;2023-05-17T20:06:52;13.5;88.1
72919;SHT30;68407;55.694;26.994;2023-05-17T20:12:14;13.5;87.7
72919;SHT30;68407;55.694;26.994;2023-05-17T20:16:28;13.5;87.5
72919;SHT30;68407;55.694;26.994;2023-05-17T20:21:50;13.5;87.6
72919;SHT30;68407;55.694;26.994;2023-05-17T20:26:56;13.5;87.5
72919;SHT30;68407;55.694;26.994;2023-05-17T20:31:50;13.5;87.6
72919;SHT30;68407;55.694;26.994;2023-05-17T20:37:06;13.5;86.8
72919;SHT30;68407;55.694;26.994;2023-05-17T20:41:38;13.3;87.1
72919;SHT30;68407;55.694;26.994;2023-05-17T20:47:14;13.2;87.5
72919;SHT30;68407;55.694;26.994;2023-05-17T20:51:59;13;87.5
72919;SHT30;68407;55.694;26.994;2023-05-17T20:57:14;13;87.2
72919;SHT30;68407;55.694;26.994;2023-05-17T21:01:46;12.9;86.4
72919;SHT30;68407;55.694;26.994;2023-05-17T21:07:14;12.9;86.1
72919;SHT30;68407;55.694;26.994;2023-05-17T21:11:30;12.9;86.1
72919;SHT30;68407;55.694;26.994;2023-05-17T21:17:03;12.8;86.2
72919;SHT30;68407;55.694;26.994;2023-05-17T21:22:14;12.8;86.1
72919;SHT30;68407;55.694;26.994;2023-05-17T21:26:30;12.7;86
72919;SHT30;68407;55.694;26.994;2023-05-17T21:31:48;12.6;85.9
72919;SHT30;68407;55.694;26.994;2023-05-17T21:36:54;12.5;86.3
72919;SHT30;68407;55.694;26.994;2023-05-17T21:41:40;12.5;86.2
72919;SHT30;68407;55.694;26.994;2023-05-17T21:47:06;12.3;86
72919;SHT30;68407;55.694;26.994;2023-05-17T21:52:12;12.2;86.3
72919;SHT30;68407;55.694;26.994;2023-05-17T21:56:31;12.2;86.1
72919;SHT30;68407;55.694;26.994;2023-05-17T22:01:56;12.2;86
72919;SHT30;68407;55.694;26.994;2023-05-17T22:07:04;12.2;86
72919;SHT30;68407;55.694;26.994;2023-05-17T22:12:01;12.1;85.8
72919;SHT30;68407;55.694;26.994;2023-05-17T22:16:48;12;85.9
72919;SHT30;68407;55.694;26.994;2023-05-17T22:22:00;12;85.8
72919;SHT30;68407;55.694;26.994;2023-05-17T22:27:12;11.9;85.9
72919;SHT30;68407;55.694;26.994;2023-05-17T22:32:14;11.8;85.8
72919;SHT30;68407;55.694;26.994;2023-05-17T22:36:36;11.7;86
72919;SHT30;68407;55.694;26.994;2023-05-17T22:42:14;11.7;86.2
72919;SHT30;68407;55.694;26.994;2023-05-17T22:47:06;11.7;85.9
72919;SHT30;68407;55.694;26.994;2023-05-17T22:51:30;11.6;85.6
72919;SHT30;68407;55.694;26.994;2023-05-17T22:56:46;11.5;84.8
72919;SHT30;68407;55.694;26.994;2023-05-17T23:02:12;11.5;84.8
72919;SHT30;68407;55.694;26.994;2023-05-17T23:06:31;11.4;84.9
72919;SHT30;68407;55.694;26.994;2023-05-17T23:12:14;11.3;85.5
72919;SHT30;68407;55.694;26.994;2023-05-17T23:17:12;11.4;85.6
72919;SHT30;68407;55.694;26.994;2023-05-17T23:21:40;11.4;85.5
72919;SHT30;68407;55.694;26.994;2023-05-17T23:26:51;11.5;85.5
72919;SHT30;68407;55.694;26.994;2023-05-17T23:31:55;11.5;84.9
72919;SHT30;68407;55.694;26.994;2023-05-17T23:36:47;11.3;83.9
72919;SHT30;68407;55.694;26.994;2023-05-17T23:42:07;11.3;84.4
72919;SHT30;68407;55.694;26.994;2023-05-17T23:46:55;11.3;84.7
72919;SHT30;68407;55.694;26.994;2023-05-17T23:51:47;11.2;84.8
72919;SHT30;68407;55.694;26.994;2023-05-17T23:56:59;11.2;84.7
